Time;durP1;ratioP1;P1;durP2;ratioP2;P2;SDS_P1;SDS_P2;PMS_P1;PMS_P2;Temp;Humidity;BMP_temperature;BMP_pressure;BME280_temperature;BME280_humidity;BME280_pressure;Samples;Min_cycle;Max_cycle;Signal;HPM_P1;HPM_P2
2022/03/22 00:01:42;;;;;;;;;3.60;3.60;;;;;;;;5190567;28;8828;-71
2022/03/22 00:04:14;;;;;;;;;10.80;10.80;;;;;;;;5219597;28;9548;-71
2022/03/22 00:06:47;;;;;;;;;16.00;16.00;;;;;;;;5206728;28;8784;-71
2022/03/22 00:09:18;;;;;;;;;4.40;4.40;;;;;;;;5190611;28;8776;-71
2022/03/22 00:11:50;;;;;;;;;5.00;5.00;;;;;;;;5206615;28;8819;-71
2022/03/22 00:14:21;;;;;;;;;2.00;2.00;;;;;;;;5190456;28;8788;-71
2022/03/22 00:16:53;;;;;;;;;4.00;4.00;;;;;;;;5239923;28;8822;-71
2022/03/22 00:19:43;;;;;;;;;6.40;6.00;;;;;;;;5222017;28;8812;-71
2022/03/22 00:22:15;;;;;;;;;4.80;4.80;;;;;;;;5206895;28;8816;-71
2022/03/22 00:25:06;;;;;;;;;4.00;4.00;;;;;;;;5192781;28;8866;-72
2022/03/22 00:27:57;;;;;;;;;3.00;3.00;;;;;;;;5206525;28;8816;-72
2022/03/22 00:30:47;;;;;;;;;1.00;1.00;;;;;;;;5193048;28;8958;-72
2022/03/22 00:33:19;;;;;;;;;1.40;1.40;;;;;;;;5190040;28;9522;-72
2022/03/22 00:35:51;;;;;;;;;3.20;3.20;;;;;;;;5203611;28;8808;-72
2022/03/22 00:38:22;;;;;;;;;7.60;7.60;;;;;;;;5219074;28;8807;-72
2022/03/22 00:40:54;;;;;;;;;24.20;24.20;;;;;;;;5205924;28;8859;-72
2022/03/22 00:43:26;;;;;;;;;15.40;15.40;;;;;;;;5205974;28;8828;-73
2022/03/22 00:45:57;;;;;;;;;9.80;9.80;;;;;;;;5189938;28;8776;-73
2022/03/22 00:48:29;;;;;;;;;10.40;10.20;;;;;;;;5189578;28;8918;-73
2022/03/22 00:51:01;;;;;;;;;4.00;3.80;;;;;;;;5189493;28;8799;-73
2022/03/22 00:53:51;;;;;;;;;3.00;3.00;;;;;;;;5206318;28;8792;-72
2022/03/22 00:56:24;;;;;;;;;3.20;3.20;;;;;;;;5207165;28;8818;-72
2022/03/22 01:01:45;;;;;;;;;1.00;1.00;;;;;;;;5206003;28;8828;-72
2022/03/22 01:04:16;;;;;;;;;0.20;0.20;;;;;;;;5222454;28;8827;-72
2022/03/22 01:06:48;;;;;;;;;1.00;1.00;;;;;;;;5189297;28;8978;-72
2022/03/22 01:09:19;;;;;;;;;5.00;4.60;;;;;;;;5205625;28;9526;-72
2022/03/22 01:11:51;;;;;;;;;7.00;7.00;;;;;;;;5205584;28;8858;-72
2022/03/22 01:14:42;;;;;;;;;13.00;10.80;;;;;;;;5219558;28;8804;-72
2022/03/22 01:17:13;;;;;;;;;8.80;8.80;;;;;;;;5205427;28;8820;-72
2022/03/22 01:19:45;;;;;;;;;6.60;6.60;;;;;;;;5189123;28;8815;-72
2022/03/22 01:22:17;;;;;;;;;21.40;21.40;;;;;;;;5205039;28;8835;-72
2022/03/22 01:24:49;;;;;;;;;25.80;21.40;;;;;;;;5205348;28;8807;-72
2022/03/22 01:27:22;;;;;;;;;15.80;15.80;;;;;;;;5188981;28;8815;-73
2022/03/22 01:29:54;;;;;;;;;10.00;10.00;;;;;;;;5188859;28;9238;-73
2022/03/22 01:32:25;;;;;;;;;11.20;9.60;;;;;;;;5205116;28;8787;-73
2022/03/22 01:34:56;;;;;;;;;4.00;4.00;;;;;;;;5204910;28;8796;-72
2022/03/22 01:37:28;;;;;;;;;0.00;0.00;;;;;;;;5208262;28;8908;-72
2022/03/22 01:39:59;;;;;;;;;0.20;0.20;;;;;;;;5225122;28;8855;-72
2022/03/22 01:42:31;;;;;;;;;0.40;0.40;;;;;;;;5209165;28;8794;-73
2022/03/22 01:45:03;;;;;;;;;1.00;1.00;;;;;;;;5209162;28;8802;-72
2022/03/22 01:47:35;;;;;;;;;2.80;2.80;;;;;;;;5225712;28;9532;-72
2022/03/22 01:50:07;;;;;;;;;3.60;3.60;;;;;;;;5225585;28;8805;-72
2022/03/22 01:52:40;;;;;;;;;1.00;1.00;;;;;;;;5201128;28;8822;-72
2022/03/22 01:55:23;;;;;;;;;1.60;1.60;;;;;;;;5204762;28;8800;-72
2022/03/22 01:57:56;;;;;;;;;1.00;1.00;;;;;;;;5180745;28;8796;-71
2022/03/22 02:00:28;;;;;;;;;1.40;1.40;;;;;;;;5188493;28;8815;-72
2022/03/22 02:06:09;;;;;;;;;1.80;1.80;;;;;;;;5206222;28;8880;-73
2022/03/22 02:08:59;;;;;;;;;4.00;4.00;;;;;;;;5191294;28;8792;-74
2022/03/22 02:11:31;;;;;;;;;3.20;3.20;;;;;;;;5188116;28;9466;-72
2022/03/22 02:14:03;;;;;;;;;8.00;7.60;;;;;;;;5204334;28;9575;-73
2022/03/22 02:16:34;;;;;;;;;10.80;10.80;;;;;;;;5204315;28;8812;-73
2022/03/22 02:19:08;;;;;;;;;16.00;13.40;;;;;;;;5187852;28;8812;-72
2022/03/22 02:21:40;;;;;;;;;11.80;11.00;;;;;;;;5204210;28;8792;-71
2022/03/22 02:24:12;;;;;;;;;10.40;9.80;;;;;;;;5237526;28;8796;-72
2022/03/22 02:26:43;;;;;;;;;4.00;4.00;;;;;;;;5188002;28;8881;-71
2022/03/22 02:29:14;;;;;;;;;10.60;10.60;;;;;;;;5187548;28;9535;-69
2022/03/22 02:32:05;;;;;;;;;17.20;16.00;;;;;;;;5230061;28;8841;-69
2022/03/22 02:34:37;;;;;;;;;25.20;23.00;;;;;;;;5187550;28;8788;-70
2022/03/22 02:37:08;;;;;;;;;31.40;30.60;;;;;;;;5204403;28;8915;-70
2022/03/22 02:39:58;;;;;;;;;32.60;31.80;;;;;;;;5204077;28;8853;-70
2022/03/22 02:42:30;;;;;;;;;22.80;22.00;;;;;;;;5237202;28;8780;-70
2022/03/22 02:45:23;;;;;;;;;28.40;27.80;;;;;;;;5190118;28;8804;-70
2022/03/22 02:47:54;;;;;;;;;26.20;26.20;;;;;;;;5220717;28;9553;-71
2022/03/22 02:50:28;;;;;;;;;28.00;26.80;;;;;;;;5236235;28;8792;-71
2022/03/22 02:53:00;;;;;;;;;23.80;22.20;;;;;;;;5186908;28;8788;-71
2022/03/22 02:55:33;;;;;;;;;21.00;21.00;;;;;;;;5212087;28;8802;-71
2022/03/22 02:58:23;;;;;;;;;37.00;34.00;;;;;;;;5224262;28;8782;-71
2022/03/22 03:00:54;;;;;;;;;43.20;41.80;;;;;;;;5207615;28;8838;-70
2022/03/22 03:03:26;;;;;;;;;24.80;22.80;;;;;;;;5224173;28;8798;-71
2022/03/22 03:05:57;;;;;;;;;9.40;9.40;;;;;;;;5224059;28;8782;-70
2022/03/22 03:08:28;;;;;;;;;8.80;8.80;;;;;;;;5207832;28;8870;-72
2022/03/22 03:10:59;;;;;;;;;28.60;28.60;;;;;;;;5202656;28;8870;-71
2022/03/22 03:14:38;;;;;;;;;35.00;35.00;;;;;;;;5187202;28;8784;-69
2022/03/22 03:16:22;;;;;;;;;35.20;35.20;;;;;;;;5186884;28;11664;-70
2022/03/22 03:19:11;;;;;;;;;22.80;22.80;;;;;;;;5203952;28;8943;-71
2022/03/22 03:21:42;;;;;;;;;21.80;21.60;;;;;;;;5203421;28;8808;-70
2022/03/22 03:24:14;;;;;;;;;18.40;18.40;;;;;;;;5236722;28;8820;-70
2022/03/22 03:26:47;;;;;;;;;23.00;22.00;;;;;;;;5204428;28;8816;-69
2022/03/22 03:29:19;;;;;;;;;23.20;21.80;;;;;;;;5217690;28;8792;-70
2022/03/22 03:31:51;;;;;;;;;17.00;16.80;;;;;;;;5170788;28;8800;-70
2022/03/22 03:34:41;;;;;;;;;27.40;27.40;;;;;;;;5215171;28;8928;-71
2022/03/22 03:37:12;;;;;;;;;50.00;46.60;;;;;;;;5257427;28;8785;-71
2022/03/22 03:39:44;;;;;;;;;57.20;50.80;;;;;;;;5207110;28;8774;-71
2022/03/22 03:42:15;;;;;;;;;36.20;34.00;;;;;;;;5222822;28;8956;-71
2022/03/22 03:47:36;;;;;;;;;39.00;37.80;;;;;;;;5207339;28;8770;-71
2022/03/22 03:50:08;;;;;;;;;21.00;21.00;;;;;;;;5223506;28;8790;-70
2022/03/22 03:52:40;;;;;;;;;21.40;20.80;;;;;;;;5221998;28;8789;-71
2022/03/22 03:55:12;;;;;;;;;12.80;12.80;;;;;;;;5186602;28;8788;-70
2022/03/22 03:57:44;;;;;;;;;7.80;7.80;;;;;;;;5186914;28;8792;-72
2022/03/22 04:00:17;;;;;;;;;19.60;19.60;;;;;;;;5202908;28;8873;-71
2022/03/22 04:02:48;;;;;;;;;23.60;23.60;;;;;;;;5221356;28;8817;-72
2022/03/22 04:05:20;;;;;;;;;14.40;13.40;;;;;;;;5206685;28;8796;-70
2022/03/22 04:07:51;;;;;;;;;21.40;21.40;;;;;;;;5190371;28;8883;-71
2022/03/22 04:10:23;;;;;;;;;27.40;27.00;;;;;;;;5206876;28;8792;-72
2022/03/22 04:12:55;;;;;;;;;31.40;29.60;;;;;;;;5205644;28;8828;-71
2022/03/22 04:15:29;;;;;;;;;55.60;48.80;;;;;;;;5222889;28;8804;-71
2022/03/22 04:18:01;;;;;;;;;38.40;36.00;;;;;;;;5190221;28;8796;-71
2022/03/22 04:20:32;;;;;;;;;16.80;13.60;;;;;;;;5190225;28;8788;-71
2022/03/22 04:23:03;;;;;;;;;25.80;25.40;;;;;;;;5189953;28;9543;-71
2022/03/22 04:25:34;;;;;;;;;18.20;18.20;;;;;;;;5206717;28;8803;-71
2022/03/22 04:33:45;;;;;;;;;15.20;15.20;;;;;;;;5206305;28;8850;-71
2022/03/22 04:36:17;;;;;;;;;20.00;19.00;;;;;;;;5206278;28;8804;-71
2022/03/22 04:38:48;;;;;;;;;15.20;15.20;;;;;;;;5222484;28;8982;-71
2022/03/22 04:41:19;;;;;;;;;9.80;9.80;;;;;;;;5206038;28;8803;-72
2022/03/22 04:44:09;;;;;;;;;11.00;11.00;;;;;;;;5192279;28;8809;-72
2022/03/22 04:46:40;;;;;;;;;9.00;9.00;;;;;;;;5206029;28;8919;-70
2022/03/22 04:49:12;;;;;;;;;4.00;3.20;;;;;;;;5205980;28;8803;-69
2022/03/22 04:57:23;;;;;;;;;21.60;21.60;;;;;;;;5206254;28;9507;-71
2022/03/22 04:59:55;;;;;;;;;19.40;19.40;;;;;;;;5205683;28;8934;-71
2022/03/22 05:02:26;;;;;;;;;24.00;23.80;;;;;;;;5205448;28;8805;-70
2022/03/22 05:05:00;;;;;;;;;22.00;19.80;;;;;;;;5212049;28;8805;-70
2022/03/22 05:07:31;;;;;;;;;24.40;24.40;;;;;;;;5190843;28;8914;-69
2022/03/22 05:10:03;;;;;;;;;18.80;17.60;;;;;;;;5206839;28;8799;-71
2022/03/22 05:12:39;;;;;;;;;23.80;22.60;;;;;;;;5210528;28;8777;-73
2022/03/22 05:15:11;;;;;;;;;21.00;20.40;;;;;;;;5241854;28;8847;-74
2022/03/22 05:17:48;;;;;;;;;11.00;11.00;;;;;;;;5224989;28;8785;-71
2022/03/22 05:20:20;;;;;;;;;8.40;8.40;;;;;;;;5207927;28;8814;-72
2022/03/22 05:22:52;;;;;;;;;12.40;12.40;;;;;;;;5224035;28;9516;-71
2022/03/22 05:25:23;;;;;;;;;15.20;15.00;;;;;;;;5240196;28;8801;-71
2022/03/22 05:27:55;;;;;;;;;1.40;1.40;;;;;;;;5207910;28;8798;-71
2022/03/22 05:30:27;;;;;;;;;20.60;18.00;;;;;;;;5203610;28;8893;-72
2022/03/22 05:32:59;;;;;;;;;10.20;9.80;;;;;;;;5200975;28;8881;-70
2022/03/22 05:35:31;;;;;;;;;8.00;8.00;;;;;;;;5188434;28;8796;-71
2022/03/22 05:38:03;;;;;;;;;11.60;11.60;;;;;;;;5202844;28;8800;-71
2022/03/22 05:40:34;;;;;;;;;68.00;54.20;;;;;;;;5209628;28;8832;-71
2022/03/22 05:43:06;;;;;;;;;43.20;38.60;;;;;;;;5226624;28;8798;-72
2022/03/22 05:45:37;;;;;;;;;14.80;13.20;;;;;;;;5208815;28;8792;-72
2022/03/22 05:48:09;;;;;;;;;8.20;8.20;;;;;;;;5209461;28;8801;-70
2022/03/22 05:50:40;;;;;;;;;27.40;23.00;;;;;;;;5188392;28;9544;-70
2022/03/22 05:53:12;;;;;;;;;30.20;29.60;;;;;;;;5223710;28;9469;-71
2022/03/22 05:55:43;;;;;;;;;20.00;20.00;;;;;;;;5219588;28;8790;-71
2022/03/22 05:58:14;;;;;;;;;8.60;8.60;;;;;;;;5226103;28;8798;-72
2022/03/22 06:00:46;;;;;;;;;13.00;12.60;;;;;;;;5226676;28;8806;-71
2022/03/22 06:03:17;;;;;;;;;32.00;32.00;;;;;;;;5229349;28;8821;-71
2022/03/22 06:05:52;;;;;;;;;25.80;24.60;;;;;;;;5245923;28;8789;-72
2022/03/22 06:08:24;;;;;;;;;8.20;8.20;;;;;;;;5229682;28;9552;-72
2022/03/22 06:10:56;;;;;;;;;9.00;9.00;;;;;;;;5245287;28;9627;-71
2022/03/22 06:13:28;;;;;;;;;9.00;9.00;;;;;;;;5208589;28;8831;-71
2022/03/22 06:15:59;;;;;;;;;17.20;17.00;;;;;;;;5208197;28;8830;-70
2022/03/22 06:18:30;;;;;;;;;15.40;15.40;;;;;;;;5208120;28;8783;-71
2022/03/22 06:21:02;;;;;;;;;7.80;7.80;;;;;;;;5192430;28;8892;-72
2022/03/22 06:23:34;;;;;;;;;12.20;12.00;;;;;;;;5208498;28;8786;-72
2022/03/22 06:26:05;;;;;;;;;17.20;16.60;;;;;;;;5207840;28;8844;-72
2022/03/22 06:28:37;;;;;;;;;17.80;17.60;;;;;;;;5208336;28;8931;-72
2022/03/22 06:31:09;;;;;;;;;13.20;13.20;;;;;;;;5208137;28;8854;-72
2022/03/22 06:33:41;;;;;;;;;13.00;13.00;;;;;;;;5191739;28;9639;-72
2022/03/22 06:36:12;;;;;;;;;7.80;6.20;;;;;;;;5208048;28;8779;-71
2022/03/22 06:38:45;;;;;;;;;6.40;6.40;;;;;;;;5207805;28;8787;-71
2022/03/22 06:41:17;;;;;;;;;9.80;9.40;;;;;;;;5207612;28;8819;-71
2022/03/22 06:43:49;;;;;;;;;5.60;5.60;;;;;;;;5207998;28;8810;-71
2022/03/22 06:46:41;;;;;;;;;7.60;7.60;;;;;;;;5210791;28;8799;-71
2022/03/22 06:49:13;;;;;;;;;32.00;25.80;;;;;;;;5191607;28;8830;-71
2022/03/22 06:51:46;;;;;;;;;54.80;45.80;;;;;;;;5191688;28;8791;-71
2022/03/22 06:54:17;;;;;;;;;22.00;22.00;;;;;;;;5207783;28;8802;-70
2022/03/22 06:57:07;;;;;;;;;7.60;7.60;;;;;;;;5227104;28;8856;-71
2022/03/22 06:59:39;;;;;;;;;6.60;6.60;;;;;;;;5244774;28;8790;-70
2022/03/22 07:02:29;;;;;;;;;9.40;9.20;;;;;;;;5244765;28;8799;-71
2022/03/22 07:05:01;;;;;;;;;22.40;21.60;;;;;;;;5244743;28;8772;-71
2022/03/22 07:07:33;;;;;;;;;13.60;13.00;;;;;;;;5211765;28;8783;-71
2022/03/22 07:10:05;;;;;;;;;26.00;23.40;;;;;;;;5228159;28;9505;-70
2022/03/22 07:12:55;;;;;;;;;6.00;6.00;;;;;;;;5226837;28;8795;-70
2022/03/22 07:15:28;;;;;;;;;14.40;14.00;;;;;;;;5211146;28;8784;-67
2022/03/22 07:18:03;;;;;;;;;20.80;20.60;;;;;;;;5203147;28;8807;-68
2022/03/22 07:20:36;;;;;;;;;7.60;7.60;;;;;;;;5220320;28;8812;-67
2022/03/22 07:23:08;;;;;;;;;1.80;1.80;;;;;;;;5189313;28;8873;-67
2022/03/22 07:25:39;;;;;;;;;7.40;7.40;;;;;;;;5244356;28;8764;-67
2022/03/22 07:28:28;;;;;;;;;13.80;13.80;;;;;;;;5204185;28;8823;-67
2022/03/22 07:30:59;;;;;;;;;11.25;11.25;;;;;;;;5219703;28;8788;-67
2022/03/22 07:33:30;;;;;;;;;5.00;5.00;;;;;;;;5240500;28;9406;-67
2022/03/22 07:36:01;;;;;;;;;6.40;6.40;;;;;;;;5228228;28;8810;-67
2022/03/22 07:38:32;;;;;;;;;8.60;8.60;;;;;;;;5230692;28;8803;-67
2022/03/22 07:41:03;;;;;;;;;31.80;31.20;;;;;;;;5242665;28;8817;-68
2022/03/22 07:43:35;;;;;;;;;24.80;24.80;;;;;;;;5248526;28;8842;-67
2022/03/22 07:46:08;;;;;;;;;14.80;13.60;;;;;;;;5231838;28;9450;-67
2022/03/22 07:48:39;;;;;;;;;15.60;14.80;;;;;;;;5231904;28;8791;-67
2022/03/22 07:54:00;;;;;;;;;56.80;45.60;;;;;;;;5228330;28;8812;-67
2022/03/22 07:56:32;;;;;;;;;22.80;21.20;;;;;;;;5210917;28;8987;-67
2022/03/22 07:59:24;;;;;;;;;6.60;6.60;;;;;;;;5213630;28;8808;-67
2022/03/22 08:01:56;;;;;;;;;5.80;5.80;;;;;;;;5210819;28;8810;-67
2022/03/22 08:04:27;;;;;;;;;15.20;15.20;;;;;;;;5228159;28;9581;-67
2022/03/22 08:06:58;;;;;;;;;15.75;15.50;;;;;;;;5227453;28;8817;-67
2022/03/22 08:09:29;;;;;;;;;13.80;13.00;;;;;;;;5210688;28;9540;-67
2022/03/22 08:11:59;;;;;;;;;21.20;21.20;;;;;;;;5242774;28;8822;-67
2022/03/22 08:14:30;;;;;;;;;18.25;18.25;;;;;;;;5232099;28;8804;-67
2022/03/22 08:17:01;;;;;;;;;12.00;12.00;;;;;;;;5254364;28;11498;-68
2022/03/22 08:19:32;;;;;;;;;11.40;11.40;;;;;;;;5210297;28;9497;-67
2022/03/22 08:22:05;;;;;;;;;15.00;15.00;;;;;;;;5228174;28;8814;-67
2022/03/22 08:24:54;;;;;;;;;13.80;12.80;;;;;;;;5227191;28;8821;-67
2022/03/22 08:27:25;;;;;;;;;12.80;12.00;;;;;;;;5228678;28;8821;-65
2022/03/22 08:29:56;;;;;;;;;12.25;12.00;;;;;;;;5228200;28;8786;-65
2022/03/22 08:32:27;;;;;;;;;12.75;8.00;;;;;;;;5229302;28;10200;-66
2022/03/22 08:34:58;;;;;;;;;7.60;7.00;;;;;;;;5210393;28;9512;-67
2022/03/22 08:37:29;;;;;;;;;2.00;2.00;;;;;;;;5228193;28;8781;-66
2022/03/22 08:40:00;;;;;;;;;3.20;3.20;;;;;;;;5226491;28;8776;-67
2022/03/22 08:42:31;;;;;;;;;0.00;0.00;;;;;;;;5226907;28;8819;-68
2022/03/22 08:45:03;;;;;;;;;1.75;1.00;;;;;;;;5247308;28;10619;-67
2022/03/22 08:47:35;;;;;;;;;2.00;2.00;;;;;;;;5230799;28;9509;-67
2022/03/22 08:50:10;;;;;;;;;2.40;2.40;;;;;;;;5246296;28;8787;-66
2022/03/22 08:52:41;;;;;;;;;5.20;4.00;;;;;;;;5248392;28;8775;-66
2022/03/22 08:55:14;;;;;;;;;0.60;0.60;;;;;;;;5237711;28;8881;-66
2022/03/22 08:57:49;;;;;;;;;3.20;3.20;;;;;;;;5257931;28;8810;-68
2022/03/22 09:00:20;;;;;;;;;6.00;6.00;;;;;;;;5227648;28;8770;-67
2022/03/22 09:02:51;;;;;;;;;7.00;7.00;;;;;;;;5248653;28;8783;-67
2022/03/22 09:08:12;;;;;;;;;2.00;1.60;;;;;;;;5247097;28;8775;-67
2022/03/22 09:10:49;;;;;;;;;3.00;3.00;;;;;;;;5248088;28;8892;-67
2022/03/22 09:13:20;;;;;;;;;2.00;2.00;;;;;;;;5213842;28;8794;-67
2022/03/22 09:15:52;;;;;;;;;1.60;1.60;;;;;;;;5230247;28;8810;-67
2022/03/22 09:18:25;;;;;;;;;5.80;4.80;;;;;;;;5247910;28;8779;-67
2022/03/22 09:20:56;;;;;;;;;1.80;1.80;;;;;;;;5248308;28;8830;-67
2022/03/22 09:23:27;;;;;;;;;4.60;4.60;;;;;;;;5248026;28;8926;-67
2022/03/22 09:25:58;;;;;;;;;4.50;4.50;;;;;;;;5246558;28;8944;-67
2022/03/22 09:28:29;;;;;;;;;5.00;4.60;;;;;;;;5230043;28;12117;-67
2022/03/22 09:31:00;;;;;;;;;6.40;4.40;;;;;;;;5246349;28;8783;-67
2022/03/22 09:33:31;;;;;;;;;15.25;12.75;;;;;;;;5247679;28;9539;-67
2022/03/22 09:36:02;;;;;;;;;2.40;2.40;;;;;;;;5247812;28;9795;-67
2022/03/22 09:38:33;;;;;;;;;5.40;5.00;;;;;;;;5247888;28;8844;-67
2022/03/22 09:41:05;;;;;;;;;5.00;4.00;;;;;;;;5246614;28;8822;-67
2022/03/22 09:43:37;;;;;;;;;5.80;5.80;;;;;;;;5246198;28;9584;-67
2022/03/22 09:46:09;;;;;;;;;4.40;4.40;;;;;;;;5247446;28;8810;-67
2022/03/22 09:48:40;;;;;;;;;4.00;3.80;;;;;;;;5247531;28;8798;-67
2022/03/22 09:54:01;;;;;;;;;16.00;15.80;;;;;;;;5247416;28;11416;-67
2022/03/22 09:56:31;;;;;;;;;19.20;18.20;;;;;;;;5246039;28;8775;-67
2022/03/22 09:59:03;;;;;;;;;17.75;16.00;;;;;;;;5229436;28;8832;-67
2022/03/22 10:01:34;;;;;;;;;7.00;5.40;;;;;;;;5245573;28;11624;-67
2022/03/22 10:04:09;;;;;;;;;9.20;8.20;;;;;;;;5247060;28;8826;-67
2022/03/22 10:06:46;;;;;;;;;2.60;2.60;;;;;;;;5227570;28;8780;-68
2022/03/22 10:09:28;;;;;;;;;1.00;1.00;;;;;;;;5211890;28;8949;-67
2022/03/22 10:11:59;;;;;;;;;4.60;4.60;;;;;;;;5213889;28;9579;-67
2022/03/22 10:14:40;;;;;;;;;7.80;7.80;;;;;;;;5229051;28;8820;-67
2022/03/22 10:17:12;;;;;;;;;11.20;11.20;;;;;;;;5246762;28;8812;-67
2022/03/22 10:19:50;;;;;;;;;22.80;22.80;;;;;;;;5228866;28;8767;-66
2022/03/22 10:22:25;;;;;;;;;20.80;20.80;;;;;;;;5238224;28;8822;-66
2022/03/22 10:25:00;;;;;;;;;16.80;16.80;;;;;;;;5229612;28;8810;-67
2022/03/22 10:27:33;;;;;;;;;8.60;8.60;;;;;;;;5225636;28;9588;-67
2022/03/22 10:30:05;;;;;;;;;8.40;8.40;;;;;;;;5208270;28;8770;-67
2022/03/22 10:32:37;;;;;;;;;10.20;10.20;;;;;;;;5208262;28;9722;-66
2022/03/22 10:35:11;;;;;;;;;1.75;1.75;;;;;;;;5224748;28;8898;-67
2022/03/22 10:37:46;;;;;;;;;2.00;2.00;;;;;;;;5208109;28;8778;-67
2022/03/22 10:40:23;;;;;;;;;3.40;3.40;;;;;;;;5224255;28;8781;-67
2022/03/22 10:42:56;;;;;;;;;2.40;2.40;;;;;;;;5201767;28;8787;-67
2022/03/22 10:45:30;;;;;;;;;1.00;1.00;;;;;;;;5246491;28;8819;-67
2022/03/22 10:48:03;;;;;;;;;2.00;2.00;;;;;;;;5228398;28;8803;-66
2022/03/22 10:50:38;;;;;;;;;1.60;1.60;;;;;;;;5246016;28;8872;-66
2022/03/22 10:53:13;;;;;;;;;0.00;0.00;;;;;;;;5232621;28;8816;-66
2022/03/22 10:55:44;;;;;;;;;0.00;0.00;;;;;;;;5207835;28;8789;-66
2022/03/22 10:58:19;;;;;;;;;6.80;6.80;;;;;;;;5257903;28;8837;-66
2022/03/22 11:00:50;;;;;;;;;9.80;9.20;;;;;;;;5224170;28;8837;-67
2022/03/22 11:03:23;;;;;;;;;8.75;8.50;;;;;;;;5238269;28;8807;-67
2022/03/22 11:05:55;;;;;;;;;3.80;3.80;;;;;;;;5244792;28;8803;-66
2022/03/22 11:08:26;;;;;;;;;9.00;9.00;;;;;;;;5211733;28;9561;-67
2022/03/22 11:10:57;;;;;;;;;26.00;22.75;;;;;;;;5244481;28;8807;-67
2022/03/22 11:13:27;;;;;;;;;23.50;22.25;;;;;;;;5245289;28;8877;-67
2022/03/22 11:15:59;;;;;;;;;22.50;22.50;;;;;;;;5250800;28;8910;-66
2022/03/22 11:18:30;;;;;;;;;6.80;6.80;;;;;;;;5249161;28;11015;-67
2022/03/22 11:21:19;;;;;;;;;1.00;1.00;;;;;;;;5250429;28;8930;-68
2022/03/22 11:23:52;;;;;;;;;5.20;3.80;;;;;;;;5210865;28;8814;-68
2022/03/22 11:26:27;;;;;;;;;4.60;4.60;;;;;;;;5207428;28;8792;-68
2022/03/22 11:28:59;;;;;;;;;8.40;7.60;;;;;;;;5207668;28;8791;-67
2022/03/22 11:31:30;;;;;;;;;5.80;5.80;;;;;;;;5207675;28;8780;-67
2022/03/22 11:34:11;;;;;;;;;2.00;2.00;;;;;;;;5226281;28;8799;-67
2022/03/22 11:36:44;;;;;;;;;0.00;0.00;;;;;;;;5232432;28;8783;-67
2022/03/22 11:39:17;;;;;;;;;11.40;11.40;;;;;;;;5250040;28;8807;-67
2022/03/22 11:44:39;;;;;;;;;2.00;2.00;;;;;;;;5208628;28;9528;-67
2022/03/22 11:47:11;;;;;;;;;3.40;3.40;;;;;;;;5207495;28;8787;-67
2022/03/22 11:49:49;;;;;;;;;2.00;2.00;;;;;;;;5208397;28;8914;-67
2022/03/22 11:52:39;;;;;;;;;7.40;7.40;;;;;;;;5213743;28;8799;-67
2022/03/22 11:55:12;;;;;;;;;10.80;10.80;;;;;;;;5248320;28;8902;-67
2022/03/22 11:57:46;;;;;;;;;36.60;33.20;;;;;;;;5248359;28;8783;-67
2022/03/22 12:00:18;;;;;;;;;16.80;14.80;;;;;;;;5215057;28;8795;-67
2022/03/22 12:02:53;;;;;;;;;6.80;6.80;;;;;;;;5220671;28;8822;-67
2022/03/22 12:05:24;;;;;;;;;5.80;4.80;;;;;;;;5190490;28;8788;-67
2022/03/22 12:08:04;;;;;;;;;7.60;7.60;;;;;;;;5208344;28;8804;-67
2022/03/22 12:10:59;;;;;;;;;4.00;4.00;;;;;;;;5235396;28;8773;-67
2022/03/22 12:13:30;;;;;;;;;12.80;12.20;;;;;;;;5234868;28;8863;-67
2022/03/22 12:16:01;;;;;;;;;5.00;5.00;;;;;;;;5228516;28;8904;-66
2022/03/22 12:18:32;;;;;;;;;5.00;5.00;;;;;;;;5228372;28;8781;-66
2022/03/22 12:21:04;;;;;;;;;2.00;2.00;;;;;;;;5227004;28;8825;-66
2022/03/22 12:23:55;;;;;;;;;18.00;14.20;;;;;;;;5240100;28;8862;-66
2022/03/22 12:26:26;;;;;;;;;4.40;4.40;;;;;;;;5206156;28;8824;-67
2022/03/22 12:28:57;;;;;;;;;19.20;19.00;;;;;;;;5239793;28;8781;-66
2022/03/22 12:31:28;;;;;;;;;22.00;20.60;;;;;;;;5206169;28;8824;-66
2022/03/22 12:33:59;;;;;;;;;58.00;46.25;;;;;;;;5254578;28;8816;-67
2022/03/22 12:36:30;;;;;;;;;43.75;39.00;;;;;;;;5226717;28;8778;-67
2022/03/22 12:39:01;;;;;;;;;10.00;8.00;;;;;;;;5226681;28;11447;-67
2022/03/22 12:41:50;;;;;;;;;4.20;4.20;;;;;;;;5226797;28;8928;-67
2022/03/22 12:44:22;;;;;;;;;3.25;3.25;;;;;;;;5244926;28;8921;-67
2022/03/22 12:46:54;;;;;;;;;13.80;13.80;;;;;;;;5247497;28;8917;-67
2022/03/22 12:49:25;;;;;;;;;6.40;6.40;;;;;;;;5248564;28;8771;-67
2022/03/22 12:52:14;;;;;;;;;15.80;15.80;;;;;;;;5247652;28;8813;-67
2022/03/22 12:54:46;;;;;;;;;12.00;12.00;;;;;;;;5227709;28;8804;-67
2022/03/22 12:57:17;;;;;;;;;2.00;2.00;;;;;;;;5227763;28;8801;-66
2022/03/22 12:59:48;;;;;;;;;2.40;2.40;;;;;;;;5208440;28;8811;-67
2022/03/22 13:02:38;;;;;;;;;3.60;3.60;;;;;;;;5255150;28;8793;-66
2022/03/22 13:05:10;;;;;;;;;5.60;4.60;;;;;;;;5226226;28;8778;-66
2022/03/22 13:07:44;;;;;;;;;21.60;21.60;;;;;;;;5226146;28;8867;-66
2022/03/22 13:13:15;;;;;;;;;8.00;8.00;;;;;;;;5246835;28;8779;-66
2022/03/22 13:15:47;;;;;;;;;9.00;9.00;;;;;;;;5231159;28;8811;-67
2022/03/22 13:18:19;;;;;;;;;10.40;9.40;;;;;;;;5227346;28;9011;-68
2022/03/22 13:21:09;;;;;;;;;12.80;12.80;;;;;;;;5227293;28;8832;-66
2022/03/22 13:23:40;;;;;;;;;9.40;9.00;;;;;;;;5209346;28;8778;-66
2022/03/22 13:26:14;;;;;;;;;9.50;9.50;;;;;;;;5226960;28;8829;-67
2022/03/22 13:28:47;;;;;;;;;9.00;9.00;;;;;;;;5252575;28;11503;-67
2022/03/22 13:31:22;;;;;;;;;15.80;15.80;;;;;;;;5221867;28;8784;-67
2022/03/22 13:33:54;;;;;;;;;17.60;17.60;;;;;;;;5234138;28;8813;-66
2022/03/22 13:36:25;;;;;;;;;5.00;4.80;;;;;;;;5225638;28;8809;-66
2022/03/22 13:38:57;;;;;;;;;3.80;3.80;;;;;;;;5219810;28;8811;-65
2022/03/22 13:41:31;;;;;;;;;20.40;17.00;;;;;;;;5212945;28;8795;-67
2022/03/22 13:44:02;;;;;;;;;4.40;4.40;;;;;;;;5216845;28;8840;-67
